createdAt,value
2022-12-08T00:00:18.883Z,97.17
2022-12-08T00:00:49.450Z,96.92
2022-12-08T00:01:20.019Z,96.71
2022-12-08T00:01:50.805Z,96.76
2022-12-08T00:02:21.794Z,96.76
2022-12-08T00:02:52.902Z,96.66
2022-12-08T00:03:23.311Z,96.66
2022-12-08T00:03:54.028Z,96.66
2022-12-08T00:04:24.587Z,96.76
2022-12-08T00:04:55.328Z,96.86
2022-12-08T00:05:25.910Z,96.97
2022-12-08T00:05:56.491Z,96.97
2022-12-08T00:06:27.068Z,97.07
2022-12-08T00:06:57.643Z,97.07
2022-12-08T00:07:28.209Z,97.07
2022-12-08T00:07:58.924Z,97.17
2022-12-08T00:08:29.507Z,96.97
2022-12-08T00:09:00.085Z,96.86
2022-12-08T00:09:36.414Z,96.86
2022-12-08T00:10:14.337Z,96.86
2022-12-08T00:10:49.310Z,96.97
2022-12-08T00:11:02.999Z,97.13
2022-12-08T00:11:33.588Z,97.28
2022-12-08T00:12:04.170Z,97.28
2022-12-08T00:12:34.740Z,97.13
2022-12-08T00:13:05.319Z,97.03
2022-12-08T00:13:35.901Z,96.86
2022-12-08T00:14:06.494Z,96.71
2022-12-08T00:14:37.086Z,96.66
2022-12-08T00:15:07.661Z,96.55
2022-12-08T00:15:38.346Z,96.55
2022-12-08T00:16:09.018Z,96.71
2022-12-08T00:16:39.662Z,97.03
2022-12-08T00:17:10.227Z,97.24
2022-12-08T00:17:40.820Z,97.34
2022-12-08T00:18:11.363Z,97.34
2022-12-08T00:18:41.949Z,97.03
2022-12-08T00:19:12.506Z,96.71
2022-12-08T00:19:43.095Z,96.61
2022-12-08T00:20:13.683Z,96.50
2022-12-08T00:20:44.256Z,96.61
2022-12-08T00:21:14.835Z,96.30
2022-12-08T00:21:45.396Z,96.09
2022-12-08T00:22:15.997Z,95.98
2022-12-08T00:22:46.569Z,95.98
2022-12-08T00:23:17.167Z,96.19
2022-12-08T00:23:47.734Z,96.30
2022-12-08T00:24:18.314Z,96.30
2022-12-08T00:24:48.889Z,96.30
2022-12-08T00:25:19.490Z,96.40
2022-12-08T00:25:50.067Z,96.50
2022-12-08T00:26:20.649Z,96.71
2022-12-08T00:26:51.180Z,96.92
2022-12-08T00:27:21.761Z,97.13
2022-12-08T00:27:52.328Z,97.24
2022-12-08T00:28:22.909Z,97.34
2022-12-08T00:28:53.516Z,97.24
2022-12-08T00:29:24.081Z,97.34
2022-12-08T00:29:54.664Z,97.44
2022-12-08T00:30:25.251Z,97.44
2022-12-08T00:30:55.825Z,97.34
2022-12-08T00:31:26.482Z,97.24
2022-12-08T00:31:57.109Z,97.13
2022-12-08T00:32:27.675Z,96.82
2022-12-08T00:32:58.284Z,96.61
2022-12-08T00:33:28.842Z,96.61
2022-12-08T00:33:59.447Z,96.71
2022-12-08T00:34:30.002Z,96.71
2022-12-08T00:35:00.833Z,96.50
2022-12-08T00:35:31.507Z,96.40
2022-12-08T00:36:02.076Z,96.50
2022-12-08T00:36:32.720Z,96.71
2022-12-08T00:37:03.252Z,96.71
2022-12-08T00:37:33.827Z,96.50
2022-12-08T00:38:04.403Z,96.40
2022-12-08T00:38:35.007Z,96.19
2022-12-08T00:39:05.554Z,96.19
2022-12-08T00:39:36.132Z,96.19
2022-12-08T00:40:06.901Z,96.40
2022-12-08T00:40:37.661Z,96.40
2022-12-08T00:41:08.246Z,96.30
2022-12-08T00:41:38.873Z,96.19
2022-12-08T00:42:09.449Z,96.09
2022-12-08T00:42:40.016Z,95.98
2022-12-08T00:43:10.608Z,95.88
2022-12-08T00:43:41.182Z,95.78
2022-12-08T00:44:11.772Z,95.78
2022-12-08T00:44:42.353Z,95.78
2022-12-08T00:45:12.909Z,95.78
2022-12-08T00:45:43.558Z,95.98
2022-12-08T00:46:14.146Z,96.09
2022-12-08T00:46:44.686Z,95.98
2022-12-08T00:47:15.292Z,96.19
2022-12-08T00:47:45.839Z,96.40
2022-12-08T00:48:16.416Z,96.50
2022-12-08T00:48:46.973Z,96.50
2022-12-08T00:49:17.530Z,96.50
2022-12-08T00:49:48.103Z,96.61
2022-12-08T00:50:18.676Z,96.71
2022-12-08T00:50:49.272Z,96.50
2022-12-08T00:51:19.820Z,96.30
2022-12-08T00:51:50.412Z,96.30
2022-12-08T00:52:20.976Z,96.30
2022-12-08T00:52:51.558Z,96.30
2022-12-08T00:53:22.161Z,96.40
2022-12-08T00:53:52.750Z,96.71
2022-12-08T00:54:23.316Z,97.03
2022-12-08T00:54:53.890Z,96.92
2022-12-08T00:55:24.466Z,96.82
2022-12-08T00:55:55.050Z,96.61
2022-12-08T00:56:25.620Z,96.50
2022-12-08T00:56:56.219Z,96.30
2022-12-08T00:57:26.791Z,96.30
2022-12-08T00:57:57.362Z,96.40
2022-12-08T00:58:27.927Z,96.50
2022-12-08T00:58:58.509Z,96.61
2022-12-08T00:59:29.070Z,96.82
2022-12-08T00:59:59.639Z,96.71
2022-12-08T01:00:30.195Z,96.50
2022-12-08T01:01:00.821Z,96.40
2022-12-08T01:01:31.462Z,96.40
2022-12-08T01:02:02.134Z,96.40
2022-12-08T01:02:32.685Z,96.50
2022-12-08T01:03:03.334Z,96.40
2022-12-08T01:03:33.964Z,96.50
2022-12-08T01:04:04.523Z,96.50
2022-12-08T01:04:35.127Z,96.61
2022-12-08T01:05:05.681Z,96.71
2022-12-08T01:05:36.272Z,96.82
2022-12-08T01:06:06.857Z,97.13
2022-12-08T01:06:37.442Z,97.34
2022-12-08T01:07:08.031Z,97.55
2022-12-08T01:07:38.645Z,97.55
2022-12-08T01:08:09.337Z,97.55
2022-12-08T01:08:39.980Z,97.55
2022-12-08T01:09:10.552Z,97.55
2022-12-08T01:09:41.125Z,97.55
2022-12-08T01:10:11.742Z,97.55
2022-12-08T01:10:42.308Z,97.44
2022-12-08T01:11:12.856Z,97.55
2022-12-08T01:11:43.404Z,97.44
2022-12-08T01:12:13.976Z,97.34
2022-12-08T01:12:44.534Z,97.34
2022-12-08T01:13:15.104Z,97.24
2022-12-08T01:13:45.677Z,97.03
2022-12-08T01:14:16.242Z,97.03
2022-12-08T01:14:46.839Z,97.13
2022-12-08T01:15:17.444Z,97.34
2022-12-08T01:15:48.045Z,97.34
2022-12-08T01:16:18.766Z,97.44
2022-12-08T01:16:49.406Z,97.55
2022-12-08T01:17:19.986Z,97.55
2022-12-08T01:17:50.579Z,97.44
2022-12-08T01:18:21.165Z,97.55
2022-12-08T01:18:51.778Z,97.24
2022-12-08T01:19:22.360Z,97.24
2022-12-08T01:19:52.920Z,97.24
2022-12-08T01:20:23.508Z,97.24
2022-12-08T01:20:54.102Z,97.24
2022-12-08T01:21:24.703Z,97.13
2022-12-08T01:21:55.299Z,97.13
2022-12-08T01:22:25.856Z,97.03
2022-12-08T01:22:56.418Z,97.03
2022-12-08T01:23:27.036Z,97.03
2022-12-08T01:23:57.601Z,97.03
2022-12-08T01:24:28.189Z,97.03
2022-12-08T01:24:58.741Z,97.13
2022-12-08T01:25:29.326Z,97.13
2022-12-08T01:25:59.916Z,97.13
2022-12-08T01:26:30.498Z,97.34
2022-12-08T01:27:01.084Z,97.34
2022-12-08T01:27:31.684Z,97.34
2022-12-08T01:28:02.245Z,97.24
2022-12-08T01:28:32.818Z,97.34
2022-12-08T01:29:03.402Z,97.34
2022-12-08T01:29:34.001Z,97.34
2022-12-08T01:30:04.858Z,97.34
2022-12-08T01:30:35.612Z,97.13
2022-12-08T01:31:06.266Z,97.24
2022-12-08T01:31:36.804Z,97.44
2022-12-08T01:32:07.388Z,97.55
2022-12-08T01:32:37.969Z,97.86
2022-12-08T01:33:08.567Z,97.97
2022-12-08T01:33:40.003Z,97.97
2022-12-08T01:34:10.095Z,97.86
2022-12-08T01:34:40.687Z,97.75
2022-12-08T01:35:11.255Z,97.65
2022-12-08T01:35:41.829Z,97.55
2022-12-08T01:36:12.421Z,97.44
2022-12-08T01:36:43.039Z,97.34
2022-12-08T01:37:13.594Z,97.34
2022-12-08T01:37:43.386Z,97.34
2022-12-08T01:38:15.030Z,97.44
2022-12-08T01:38:45.609Z,97.24
2022-12-08T01:39:16.184Z,96.92
2022-12-08T01:39:46.750Z,96.71
2022-12-08T01:40:17.319Z,96.61
2022-12-08T01:40:47.879Z,96.61
2022-12-08T01:41:18.466Z,96.82
2022-12-08T01:41:49.044Z,96.92
2022-12-08T01:42:19.617Z,96.92
2022-12-08T01:42:50.196Z,97.03
2022-12-08T01:43:20.783Z,97.13
2022-12-08T01:43:51.356Z,97.34
2022-12-08T01:44:21.914Z,97.44
2022-12-08T01:44:52.491Z,97.44
2022-12-08T01:45:23.093Z,97.13
2022-12-08T01:45:53.736Z,97.13
2022-12-08T01:46:24.372Z,97.34
2022-12-08T01:46:54.954Z,97.55
2022-12-08T01:47:25.548Z,97.44
2022-12-08T01:47:56.135Z,97.44
2022-12-08T01:48:26.744Z,97.34
2022-12-08T01:48:57.292Z,97.34
2022-12-08T01:49:27.895Z,97.34
2022-12-08T01:49:58.477Z,97.34
2022-12-08T01:50:29.285Z,97.44
2022-12-08T01:50:59.875Z,97.55
2022-12-08T01:51:30.467Z,97.55
2022-12-08T01:52:01.016Z,97.55
2022-12-08T01:52:31.582Z,97.55
2022-12-08T01:53:02.156Z,97.65
2022-12-08T01:53:32.744Z,97.65
2022-12-08T01:54:03.332Z,97.65
2022-12-08T01:54:33.913Z,97.65
2022-12-08T01:55:04.495Z,97.44
2022-12-08T01:55:35.041Z,97.34
2022-12-08T01:56:05.583Z,97.24
2022-12-08T01:56:36.147Z,97.13
2022-12-08T01:57:06.728Z,97.03
2022-12-08T01:57:37.328Z,97.24
2022-12-08T01:58:07.882Z,97.34
2022-12-08T01:58:38.483Z,97.24
2022-12-08T01:59:09.060Z,97.24
2022-12-08T01:59:39.634Z,97.24
2022-12-08T02:00:10.202Z,97.34
2022-12-08T02:00:40.754Z,97.34
2022-12-08T02:01:11.428Z,97.34
2022-12-08T02:01:42.052Z,97.34
2022-12-08T02:02:12.678Z,97.44
2022-12-08T02:02:43.354Z,97.44
2022-12-08T02:03:13.959Z,97.44
2022-12-08T02:03:44.516Z,97.34
2022-12-08T02:04:15.125Z,97.34
2022-12-08T02:04:47.080Z,97.34
2022-12-08T02:05:16.630Z,97.55
2022-12-08T02:05:47.194Z,97.75
2022-12-08T02:06:17.732Z,97.75
2022-12-08T02:06:48.304Z,97.75
2022-12-08T02:07:18.894Z,97.55
2022-12-08T02:07:49.531Z,97.34
2022-12-08T02:08:20.229Z,97.13
2022-12-08T02:08:50.848Z,96.82
2022-12-08T02:09:21.431Z,96.71
2022-12-08T02:09:51.992Z,96.82
2022-12-08T02:10:22.526Z,97.03
2022-12-08T02:10:53.059Z,96.92
2022-12-08T02:11:23.631Z,96.82
2022-12-08T02:11:54.217Z,96.82
2022-12-08T02:12:24.790Z,96.82
2022-12-08T02:12:55.388Z,96.92
2022-12-08T02:13:25.990Z,97.13
2022-12-08T02:13:56.575Z,97.34
2022-12-08T02:14:27.122Z,97.44
2022-12-08T02:15:03.364Z,97.44
2022-12-08T02:15:28.477Z,97.24
2022-12-08T02:15:59.120Z,97.03
2022-12-08T02:16:29.806Z,97.03
2022-12-08T02:17:00.420Z,97.03
2022-12-08T02:17:30.998Z,97.03
2022-12-08T02:18:01.635Z,97.13
2022-12-08T02:18:32.190Z,97.24
2022-12-08T02:19:29.713Z,97.03
2022-12-08T02:19:33.812Z,96.82
2022-12-08T02:20:04.554Z,96.82
2022-12-08T02:20:35.233Z,96.92
2022-12-08T02:21:05.820Z,97.03
2022-12-08T02:21:36.414Z,97.03
2022-12-08T02:22:07.022Z,96.71
2022-12-08T02:22:37.569Z,96.50
2022-12-08T02:23:08.135Z,96.40
2022-12-08T02:23:38.729Z,96.50
2022-12-08T02:24:09.309Z,96.71
2022-12-08T02:24:39.881Z,96.92
2022-12-08T02:25:10.470Z,97.03
2022-12-08T02:25:41.026Z,96.92
2022-12-08T02:26:11.637Z,96.71
2022-12-08T02:26:42.191Z,96.40
2022-12-08T02:27:12.749Z,96.09
2022-12-08T02:27:43.322Z,95.98
2022-12-08T02:28:13.944Z,95.98
2022-12-08T02:28:44.516Z,96.09
2022-12-08T02:29:15.090Z,96.40
2022-12-08T02:29:45.683Z,96.82
2022-12-08T02:30:16.263Z,96.82
2022-12-08T02:30:46.914Z,96.71
2022-12-08T02:31:17.634Z,96.50
2022-12-08T02:31:48.204Z,96.40
2022-12-08T02:32:18.784Z,96.19
2022-12-08T02:32:49.359Z,95.88
2022-12-08T02:33:19.952Z,95.67
2022-12-08T02:33:50.547Z,95.56
2022-12-08T02:34:21.181Z,95.67
2022-12-08T02:34:51.782Z,95.88
2022-12-08T02:35:22.393Z,95.98
2022-12-08T02:35:52.919Z,96.09
2022-12-08T02:36:23.523Z,96.19
2022-12-08T02:36:54.108Z,96.30
2022-12-08T02:37:24.719Z,96.50
2022-12-08T02:37:55.267Z,96.61
2022-12-08T02:38:25.845Z,96.50
2022-12-08T02:38:56.434Z,96.50
2022-12-08T02:39:26.995Z,96.50
2022-12-08T02:39:57.606Z,96.61
2022-12-08T02:40:28.179Z,96.71
2022-12-08T02:40:58.752Z,96.61
2022-12-08T02:41:29.324Z,96.36
2022-12-08T02:41:59.896Z,96.30
2022-12-08T02:42:30.464Z,96.19
2022-12-08T02:43:01.046Z,95.88
2022-12-08T02:43:31.602Z,95.78
2022-12-08T02:44:02.164Z,95.98
2022-12-08T02:44:32.753Z,96.09
2022-12-08T02:45:03.349Z,96.09
2022-12-08T02:45:33.922Z,96.19
2022-12-08T02:46:04.539Z,96.19
2022-12-08T02:46:35.132Z,96.30
2022-12-08T02:47:05.678Z,96.50
2022-12-08T02:47:36.257Z,96.77
2022-12-08T02:48:06.840Z,96.71
2022-12-08T02:48:37.451Z,96.56
2022-12-08T02:49:08.052Z,96.61
2022-12-08T02:49:38.594Z,96.56
2022-12-08T02:50:09.179Z,96.46
2022-12-08T02:50:39.764Z,96.09
2022-12-08T02:51:10.297Z,95.88
2022-12-08T02:51:40.871Z,95.88
2022-12-08T02:52:11.463Z,95.88
2022-12-08T02:52:42.050Z,96.09
2022-12-08T02:53:43.219Z,96.09
2022-12-08T02:54:13.800Z,95.88
2022-12-08T02:54:44.362Z,95.88
2022-12-08T02:55:14.942Z,95.78
2022-12-08T02:55:45.540Z,95.98
2022-12-08T02:56:16.092Z,96.09
2022-12-08T02:56:46.706Z,95.98
2022-12-08T02:57:17.279Z,95.98
2022-12-08T02:57:47.860Z,96.09
2022-12-08T02:58:18.418Z,96.09
2022-12-08T02:58:48.996Z,96.19
2022-12-08T02:59:19.591Z,96.09
2022-12-08T02:59:50.167Z,96.09
2022-12-08T03:00:20.724Z,96.30
2022-12-08T03:00:51.310Z,96.61
2022-12-08T03:01:21.951Z,96.82
2022-12-08T03:01:52.582Z,96.92
2022-12-08T03:02:23.275Z,96.82
2022-12-08T03:02:53.926Z,96.50
2022-12-08T03:03:24.516Z,96.50
2022-12-08T03:03:55.090Z,96.30
2022-12-08T03:04:25.680Z,95.98
2022-12-08T03:04:56.254Z,95.78
2022-12-08T03:05:26.829Z,95.78
2022-12-08T03:05:57.437Z,95.98
2022-12-08T03:06:27.993Z,96.19
2022-12-08T03:06:58.839Z,96.40
2022-12-08T03:07:29.442Z,96.61
2022-12-08T03:08:00.133Z,96.92
2022-12-08T03:08:30.826Z,97.13
2022-12-08T03:09:01.396Z,97.13
2022-12-08T03:09:31.954Z,97.24
2022-12-08T03:10:03.067Z,97.24
2022-12-08T03:10:33.313Z,97.24
2022-12-08T03:11:03.892Z,97.13
2022-12-08T03:11:34.476Z,97.13
2022-12-08T03:12:05.061Z,96.92
2022-12-08T03:12:35.643Z,96.71
2022-12-08T03:13:06.221Z,96.61
2022-12-08T03:13:36.813Z,96.71
2022-12-08T03:14:07.598Z,96.71
2022-12-08T03:14:38.177Z,96.61
2022-12-08T03:15:08.763Z,96.61
2022-12-08T03:15:39.396Z,96.71
2022-12-08T03:16:10.025Z,96.71
2022-12-08T03:16:40.601Z,96.82
2022-12-08T03:17:11.179Z,96.61
2022-12-08T03:17:41.759Z,96.50
2022-12-08T03:18:12.324Z,96.30
2022-12-08T03:18:44.176Z,96.09
2022-12-08T03:19:13.855Z,95.88
2022-12-08T03:19:44.449Z,95.88
2022-12-08T03:20:15.024Z,95.88
2022-12-08T03:20:45.616Z,95.98
2022-12-08T03:21:16.262Z,96.09
2022-12-08T03:21:46.826Z,96.19
2022-12-08T03:22:17.399Z,96.19
2022-12-08T03:22:48.010Z,96.30
2022-12-08T03:23:18.575Z,96.19
2022-12-08T03:23:49.130Z,95.88
2022-12-08T03:24:19.776Z,95.46
2022-12-08T03:24:50.349Z,95.36
2022-12-08T03:25:20.940Z,95.46
2022-12-08T03:25:51.532Z,95.46
2022-12-08T03:26:22.089Z,95.46
2022-12-08T03:26:52.671Z,95.46
2022-12-08T03:27:23.232Z,95.67
2022-12-08T03:27:53.824Z,95.78
2022-12-08T03:28:24.359Z,95.98
2022-12-08T03:28:54.941Z,96.09
2022-12-08T03:29:25.521Z,96.19
2022-12-08T03:29:56.122Z,96.19
2022-12-08T03:30:26.723Z,96.19
2022-12-08T03:30:57.353Z,96.19
2022-12-08T03:31:27.961Z,95.88
2022-12-08T03:31:58.553Z,95.98
2022-12-08T03:32:29.136Z,96.09
2022-12-08T03:32:59.720Z,96.19
2022-12-08T03:33:30.347Z,96.09
2022-12-08T03:34:00.929Z,95.98
2022-12-08T03:34:31.471Z,95.56
2022-12-08T03:35:02.049Z,95.46
2022-12-08T03:35:32.636Z,95.36
2022-12-08T03:36:03.204Z,95.46
2022-12-08T03:36:33.818Z,95.46
2022-12-08T03:37:04.405Z,95.67
2022-12-08T03:37:34.983Z,95.67
2022-12-08T03:38:05.544Z,95.98
2022-12-08T03:38:36.126Z,96.19
2022-12-08T03:39:06.679Z,96.19
2022-12-08T03:39:37.253Z,96.09
2022-12-08T03:40:07.971Z,95.98
2022-12-08T03:40:38.536Z,95.98
2022-12-08T03:41:09.112Z,96.09
2022-12-08T03:41:39.679Z,96.09
2022-12-08T03:42:10.275Z,96.09
2022-12-08T03:42:40.837Z,96.09
2022-12-08T03:43:11.381Z,96.19
2022-12-08T03:43:41.971Z,96.30
2022-12-08T03:44:12.534Z,96.09
2022-12-08T03:44:43.110Z,95.92
2022-12-08T03:45:13.691Z,95.67
2022-12-08T03:45:44.268Z,95.61
2022-12-08T03:46:14.960Z,95.72
2022-12-08T03:46:45.523Z,95.82
2022-12-08T03:47:16.099Z,95.92
2022-12-08T03:47:46.696Z,95.92
2022-12-08T03:48:17.284Z,95.88
2022-12-08T03:48:47.864Z,95.92
2022-12-08T03:49:18.454Z,95.88
2022-12-08T03:49:49.005Z,95.88
2022-12-08T03:50:19.616Z,95.78
2022-12-08T03:50:50.164Z,95.88
2022-12-08T03:51:20.865Z,95.78
2022-12-08T03:51:51.473Z,95.72
2022-12-08T03:52:22.030Z,95.56
2022-12-08T03:52:52.815Z,95.36
2022-12-08T03:53:23.390Z,95.29
2022-12-08T03:53:53.977Z,95.46
2022-12-08T03:54:25.051Z,95.40
2022-12-08T03:54:55.586Z,95.40
2022-12-08T03:55:26.177Z,95.46
2022-12-08T03:55:56.760Z,95.61
2022-12-08T03:56:27.348Z,95.61
2022-12-08T03:56:57.902Z,95.56
2022-12-08T03:57:28.495Z,95.29
2022-12-08T03:57:59.038Z,94.98
2022-12-08T03:58:34.339Z,95.09
2022-12-08T03:59:00.417Z,95.29
2022-12-08T03:59:31.005Z,95.50
2022-12-08T04:00:01.915Z,95.40
2022-12-08T04:00:32.110Z,95.19
2022-12-08T04:01:02.687Z,95.09
2022-12-08T04:01:33.323Z,95.19
2022-12-08T04:02:03.929Z,95.29
2022-12-08T04:02:34.526Z,95.40
2022-12-08T04:03:05.163Z,95.50
2022-12-08T04:03:35.719Z,95.61
2022-12-08T04:04:06.318Z,95.82
2022-12-08T04:04:36.888Z,95.92
2022-12-08T04:05:07.456Z,95.92
2022-12-08T04:05:38.030Z,95.82
2022-12-08T04:06:08.617Z,95.82
2022-12-08T04:06:39.174Z,95.82
2022-12-08T04:07:09.765Z,95.72
2022-12-08T04:07:40.400Z,95.61
2022-12-08T04:08:11.049Z,95.61
2022-12-08T04:08:41.638Z,95.72
2022-12-08T04:09:12.261Z,95.72
2022-12-08T04:09:42.831Z,95.50
2022-12-08T04:10:13.401Z,95.72
2022-12-08T04:10:43.975Z,95.72
2022-12-08T04:11:14.508Z,95.82
2022-12-08T04:11:45.089Z,96.03
2022-12-08T04:12:15.679Z,96.03
2022-12-08T04:12:46.257Z,95.92
2022-12-08T04:13:16.842Z,95.92
2022-12-08T04:13:47.414Z,95.92
2022-12-08T04:14:17.995Z,95.82
2022-12-08T04:14:48.589Z,95.72
2022-12-08T04:15:19.141Z,95.72
2022-12-08T04:15:49.776Z,95.92
2022-12-08T04:16:20.430Z,96.23
2022-12-08T04:16:51.055Z,96.44
2022-12-08T04:17:21.637Z,96.76
2022-12-08T04:17:52.230Z,96.86
2022-12-08T04:18:22.805Z,96.97
2022-12-08T04:18:53.416Z,97.07
2022-12-08T04:19:24.030Z,97.07
2022-12-08T04:19:54.604Z,97.17
2022-12-08T04:20:25.197Z,97.28
2022-12-08T04:20:55.759Z,97.24
2022-12-08T04:21:26.362Z,97.24
2022-12-08T04:21:56.910Z,97.13
2022-12-08T04:22:27.531Z,97.03
2022-12-08T04:22:58.102Z,97.03
2022-12-08T04:23:28.724Z,97.03
2022-12-08T04:24:01.506Z,96.92
2022-12-08T04:24:30.173Z,96.50
2022-12-08T04:25:00.759Z,95.98
2022-12-08T04:25:31.322Z,95.78
2022-12-08T04:26:01.892Z,95.67
2022-12-08T04:26:32.435Z,95.67
2022-12-08T04:27:03.019Z,95.67
2022-12-08T04:27:33.568Z,95.67
2022-12-08T04:28:04.154Z,95.78
2022-12-08T04:28:34.723Z,95.78
2022-12-08T04:29:05.344Z,95.67
2022-12-08T04:29:35.975Z,95.36
2022-12-08T04:30:07.003Z,95.36
2022-12-08T04:30:37.187Z,95.36
2022-12-08T04:31:07.826Z,95.25
2022-12-08T04:31:38.442Z,95.15
2022-12-08T04:32:09.048Z,95.25
2022-12-08T04:32:42.925Z,95.46
2022-12-08T04:33:10.414Z,95.46
2022-12-08T04:33:41.011Z,95.56
2022-12-08T04:34:11.624Z,95.56
2022-12-08T04:34:42.216Z,95.56
2022-12-08T04:35:12.809Z,95.56
2022-12-08T04:35:43.396Z,95.67
2022-12-08T04:36:13.956Z,95.78
2022-12-08T04:36:44.533Z,95.67
2022-12-08T04:37:15.139Z,95.56
2022-12-08T04:37:45.726Z,95.46
2022-12-08T04:38:16.303Z,95.36
2022-12-08T04:38:46.875Z,95.36
2022-12-08T04:39:17.454Z,95.36
2022-12-08T04:39:48.039Z,95.04
2022-12-08T04:40:18.630Z,95.04
2022-12-08T04:40:49.212Z,95.15
2022-12-08T04:41:19.750Z,94.94
2022-12-08T04:41:50.303Z,94.84
2022-12-08T04:42:20.876Z,94.73
2022-12-08T04:42:51.457Z,94.52
2022-12-08T04:43:22.053Z,94.73
2022-12-08T04:43:52.591Z,95.04
2022-12-08T04:44:23.141Z,95.36
2022-12-08T04:44:53.712Z,95.46
2022-12-08T04:45:24.294Z,95.46
2022-12-08T04:45:54.863Z,95.61
2022-12-08T04:46:25.492Z,95.50
2022-12-08T04:46:56.140Z,95.29
2022-12-08T04:47:26.715Z,94.98
2022-12-08T04:47:57.263Z,94.78
2022-12-08T04:48:27.835Z,94.88
2022-12-08T04:48:58.417Z,95.09
2022-12-08T04:49:28.983Z,95.19
2022-12-08T04:49:59.575Z,95.29
2022-12-08T04:50:30.128Z,95.40
2022-12-08T04:51:00.725Z,95.34
2022-12-08T04:51:31.309Z,95.34
2022-12-08T04:52:01.913Z,95.55
2022-12-08T04:52:32.488Z,95.72
2022-12-08T04:53:03.083Z,95.92
2022-12-08T04:53:33.638Z,96.17
2022-12-08T04:54:04.202Z,96.07
2022-12-08T04:54:34.771Z,95.44
2022-12-08T04:55:05.362Z,95.23
2022-12-08T04:55:35.925Z,95.13
2022-12-08T04:56:06.498Z,95.13
2022-12-08T04:56:37.074Z,95.23
2022-12-08T04:57:07.642Z,95.23
2022-12-08T04:57:38.236Z,95.34
2022-12-08T04:58:08.819Z,95.55
2022-12-08T04:58:39.429Z,95.76
2022-12-08T04:59:10.019Z,95.86
2022-12-08T04:59:40.598Z,95.76
2022-12-08T05:00:11.156Z,95.55
2022-12-08T05:00:41.729Z,95.38
2022-12-08T05:01:12.355Z,95.59
2022-12-08T05:01:43.099Z,95.80
2022-12-08T05:02:13.933Z,95.80
2022-12-08T05:02:44.629Z,96.01
2022-12-08T05:03:15.223Z,96.22
2022-12-08T05:03:45.794Z,96.43
2022-12-08T05:04:16.358Z,96.22
2022-12-08T05:04:46.937Z,95.90
2022-12-08T05:05:17.513Z,95.90
2022-12-08T05:05:48.092Z,95.90
2022-12-08T05:06:18.666Z,96.11
2022-12-08T05:06:48.509Z,96.22
2022-12-08T05:07:20.132Z,96.11
2022-12-08T05:07:50.761Z,95.90
2022-12-08T05:08:21.440Z,95.90
2022-12-08T05:08:52.048Z,96.11
2022-12-08T05:09:21.579Z,96.11
2022-12-08T05:09:53.211Z,96.01
2022-12-08T05:10:23.787Z,96.01
2022-12-08T05:10:54.357Z,96.11
2022-12-08T05:11:25.140Z,96.11
2022-12-08T05:11:55.716Z,96.01
2022-12-08T05:12:26.291Z,96.01
2022-12-08T05:12:56.194Z,95.90
2022-12-08T05:13:27.823Z,95.59
2022-12-08T05:13:58.400Z,95.59
2022-12-08T05:14:28.971Z,95.70
2022-12-08T05:14:59.565Z,95.70
2022-12-08T05:15:29.127Z,95.80
2022-12-08T05:16:00.801Z,95.70
2022-12-08T05:16:31.689Z,95.59
2022-12-08T05:17:07.788Z,95.49
2022-12-08T05:17:33.045Z,95.64
2022-12-08T05:18:03.829Z,95.70
2022-12-08T05:18:34.408Z,95.84
2022-12-08T05:19:05.192Z,96.16
2022-12-08T05:19:35.779Z,96.16
2022-12-08T05:20:06.698Z,95.74
2022-12-08T05:20:37.168Z,95.53
2022-12-08T05:21:07.094Z,95.43
2022-12-08T05:21:38.716Z,95.21
2022-12-08T05:22:09.288Z,95.11
2022-12-08T05:22:39.851Z,95.21
2022-12-08T05:23:10.420Z,95.21
2022-12-08T05:23:40.419Z,95.21
2022-12-08T05:24:12.003Z,95.43
2022-12-08T05:24:47.162Z,95.53
2022-12-08T05:25:13.381Z,95.53
2022-12-08T05:25:43.955Z,95.74
2022-12-08T05:26:14.553Z,95.74
2022-12-08T05:26:45.143Z,95.74
2022-12-08T05:27:15.730Z,95.74
2022-12-08T05:27:46.321Z,95.64
2022-12-08T05:28:40.773Z,95.43
2022-12-08T05:28:47.672Z,95.11
2022-12-08T05:29:18.241Z,94.80
2022-12-08T05:29:48.802Z,94.90
2022-12-08T05:30:19.375Z,95.01
2022-12-08T05:30:49.962Z,94.90
2022-12-08T05:31:20.896Z,94.90
2022-12-08T05:31:51.232Z,95.05
2022-12-08T05:32:21.881Z,95.37
2022-12-08T05:32:52.440Z,95.26
2022-12-08T05:33:24.056Z,95.05
2022-12-08T05:33:54.067Z,94.74
2022-12-08T05:34:24.853Z,94.64
2022-12-08T05:34:55.447Z,94.64
2022-12-08T05:35:25.241Z,94.95
2022-12-08T05:35:57.143Z,95.26
2022-12-08T05:36:28.002Z,95.37
2022-12-08T05:37:00.117Z,95.05
2022-12-08T05:37:28.766Z,94.95
2022-12-08T05:38:00.423Z,95.05
2022-12-08T05:38:31.036Z,95.26
2022-12-08T05:39:01.793Z,95.26
2022-12-08T05:39:32.337Z,95.37
2022-12-08T05:40:03.264Z,95.47
2022-12-08T05:40:34.732Z,95.20
2022-12-08T05:41:04.490Z,94.89
2022-12-08T05:41:35.100Z,94.68
2022-12-08T05:42:05.677Z,94.46
2022-12-08T05:42:38.280Z,94.46
2022-12-08T05:43:07.551Z,94.57
2022-12-08T05:43:37.826Z,94.78
2022-12-08T05:44:09.824Z,95.09
2022-12-08T05:44:39.630Z,95.41
2022-12-08T05:45:10.468Z,95.62
2022-12-08T05:45:41.214Z,95.83
2022-12-08T05:46:12.039Z,95.93
2022-12-08T05:46:42.724Z,95.93
2022-12-08T05:47:13.311Z,95.93
2022-12-08T05:47:43.903Z,96.04
2022-12-08T05:48:14.473Z,96.14
2022-12-08T05:48:45.042Z,96.25
2022-12-08T05:49:15.623Z,96.56
2022-12-08T05:49:46.219Z,96.88
2022-12-08T05:50:16.761Z,96.98
2022-12-08T05:50:47.346Z,96.77
2022-12-08T05:51:17.925Z,96.35
2022-12-08T05:51:48.499Z,95.93
2022-12-08T05:52:18.075Z,95.62
2022-12-08T05:52:49.687Z,95.51
2022-12-08T05:53:20.286Z,95.72
2022-12-08T05:53:50.852Z,95.62
2022-12-08T05:54:21.458Z,95.45
2022-12-08T05:54:52.008Z,95.25
2022-12-08T05:55:22.608Z,95.35
2022-12-08T05:55:53.187Z,95.35
2022-12-08T05:56:23.795Z,95.35
2022-12-08T05:56:54.370Z,95.35
2022-12-08T05:57:24.963Z,95.35
2022-12-08T05:57:55.536Z,95.45
2022-12-08T05:58:25.287Z,95.45
2022-12-08T05:58:56.947Z,95.56
2022-12-08T05:59:27.539Z,95.87
2022-12-08T05:59:58.121Z,95.87
2022-12-08T06:00:27.845Z,95.45
2022-12-08T06:00:59.484Z,95.25
2022-12-08T06:01:30.151Z,95.39
2022-12-08T06:02:00.883Z,95.60
2022-12-08T06:02:31.710Z,95.70
2022-12-08T06:03:01.800Z,95.92
2022-12-08T06:03:33.696Z,96.23
2022-12-08T06:04:04.265Z,96.55
2022-12-08T06:04:34.842Z,96.75
2022-12-08T06:05:05.424Z,96.75
2022-12-08T06:05:36.014Z,96.65
2022-12-08T06:06:06.570Z,96.65
2022-12-08T06:06:37.138Z,96.44
2022-12-08T06:07:11.806Z,96.02
2022-12-08T06:07:38.621Z,95.81
2022-12-08T06:08:09.511Z,96.02
2022-12-08T06:08:40.077Z,96.12
2022-12-08T06:09:10.646Z,96.29
2022-12-08T06:09:41.286Z,96.29
2022-12-08T06:10:11.839Z,96.08
2022-12-08T06:10:42.452Z,96.08
2022-12-08T06:11:13.041Z,95.98
2022-12-08T06:11:43.581Z,95.87
2022-12-08T06:12:14.150Z,95.66
2022-12-08T06:12:44.740Z,95.66
2022-12-08T06:13:15.321Z,95.56
2022-12-08T06:13:45.885Z,95.66
2022-12-08T06:14:16.467Z,95.66
2022-12-08T06:14:47.069Z,95.76
2022-12-08T06:15:17.627Z,95.66
2022-12-08T06:15:48.407Z,95.56
2022-12-08T06:16:19.095Z,95.60
2022-12-08T06:16:49.772Z,95.45
2022-12-08T06:17:20.354Z,95.45
2022-12-08T06:17:50.923Z,95.45
2022-12-08T06:18:21.500Z,95.45
2022-12-08T06:18:53.161Z,95.45
2022-12-08T06:19:21.653Z,95.45
2022-12-08T06:19:53.483Z,95.56
2022-12-08T06:20:24.067Z,95.66
2022-12-08T06:20:54.613Z,95.76
2022-12-08T06:21:25.170Z,95.60
2022-12-08T06:21:55.750Z,95.35
2022-12-08T06:22:26.292Z,95.29
2022-12-08T06:22:56.868Z,95.25
2022-12-08T06:23:27.443Z,95.60
2022-12-08T06:23:58.051Z,95.81
2022-12-08T06:24:28.612Z,96.12
2022-12-08T06:24:59.237Z,96.12
2022-12-08T06:25:29.829Z,96.02
2022-12-08T06:26:00.385Z,95.92
2022-12-08T06:26:30.973Z,95.98
2022-12-08T06:27:01.556Z,96.29
2022-12-08T06:27:32.124Z,96.29
2022-12-08T06:28:02.643Z,96.02
2022-12-08T06:28:33.216Z,95.92
2022-12-08T06:29:03.825Z,96.02
2022-12-08T06:29:34.409Z,96.12
2022-12-08T06:30:05.373Z,96.29
2022-12-08T06:30:35.971Z,96.55
2022-12-08T06:31:06.998Z,96.65
2022-12-08T06:31:37.590Z,96.75
2022-12-08T06:32:08.193Z,96.92
2022-12-08T06:32:38.759Z,97.13
2022-12-08T06:33:09.339Z,97.13
2022-12-08T06:33:39.903Z,97.13
2022-12-08T06:34:10.490Z,97.02
2022-12-08T06:34:41.020Z,96.92